Hdms Esbern Snare — OUFB — position and weather

sailwx.info

Track history (hours):
 
Tides and Currents Weather Stations Pressure Air Temp Water Temp Dewpoint Dewpoint Depression Visibility Wind Speed Wind Dir Waves Ship Positions

Hdms Esbern Snare

Last reported at 2016-May-01 05:33 UTC. Time now 2016-May-01 23:14 UTC.
Position N 57°25' E 010°35'.

Length 137 m.

Type: Military. MMSI: 36699999.

Date/timePositionNaut miles runAvg speedWind from/ knotsBaromVisibWave heightAir tempDewpointWater temp
2016-May-01 05:33N 57°25' E 010°35'8 8.2
2016-May-01 04:33N 57°32' E 010°44'1110.8
2016-May-01 03:33N 57°43' E 010°45'8 7.2
2016-May-01 02:29N 57°47' E 010°32'155 9.2
2016-Apr-30 09:33N 55°41' E 007°46'1111.2
2016-Apr-30 08:33N 55°31' E 007°55'1111.2
2016-Apr-30 07:33N 55°26' E 008°12'1 0.8
2016-Apr-30 06:33N 55°25' E 008°11'8 8.3
2016-Apr-30 05:33N 55°20' E 008°00'1615.6
2016-Apr-30 04:33N 55°10' E 007°39'1615.9
2016-Apr-30 03:33N 54°60' E 007°17'1615.8
2016-Apr-30 02:33N 54°56' E 006°51'24217.3
2016-Apr-29 12:32N 51°47' E 002°37'1918.7
2016-Apr-29 11:30N 51°32' E 002°16'1818.9
2016-Apr-29 10:33N 51°19' E 001°57'1414.1
2016-Apr-29 09:33N 51°08' E 001°43'2220.1
2016-Apr-29 08:29N 50°50' E 001°25'5113.1
2016-Apr-29 04:33N 50°22' E 000°17'1413.7
2016-Apr-29 03:33N 50°18' W 000°04'1814.1
2016-Apr-29 02:14N 50°13' W 000°32'8914.4
2016-Apr-28 20:06N 49°53' W 002°46'814.1
2016-Apr-28 19:31N 49°52' W 002°59'1414.3
2016-Apr-28 18:34N 49°57' W 003°18'1414.1
2016-Apr-28 17:33N 50°04' W 003°38'1312.9
2016-Apr-28 16:33N 50°10' W 003°55'1312.8
2016-Apr-28 15:33N 50°19' W 004°10'4 2.6
2016-Apr-28 14:07N 50°16' W 004°07'8 0.5
2016-Apr-27 21:20N 50°23' W 004°11'0 0.0
2016-Apr-27 20:26N 50°23' W 004°11'0 0.0
2016-Apr-27 19:26N 50°23' W 004°11'0 0.0
2016-Apr-27 18:32N 50°23' W 004°11'0 0.0
2016-Apr-27 16:08N 50°23' W 004°11'0 0.0
2016-Apr-27 15:32N 50°23' W 004°11'0 0.0
2016-Apr-27 03:31N 50°23' W 004°11'0 0.0
2016-Apr-26 20:07N 50°23' W 004°11'0 0.0
2016-Apr-26 13:07N 50°23' W 004°11'0 0.0
2016-Apr-26 12:31N 50°23' W 004°11'0 0.0
2016-Apr-26 10:31N 50°23' W 004°11'0 0.0
2016-Apr-26 08:25N 50°23' W 004°11'0 0.0
2016-Apr-26 02:12N 50°23' W 004°11'0 0.0
2016-Apr-26 01:12N 50°23' W 004°11'0 0.0
2016-Apr-26 00:30N 50°23' W 004°11'0 0.0
2016-Apr-25 21:09N 50°23' W 004°11'0 0.0
2016-Apr-25 20:33N 50°23' W 004°11'1 1.5
2016-Apr-25 19:34N 50°22' W 004°10'7 5.9
2016-Apr-25 18:25N 50°16' W 004°06'1213.5
2016-Apr-25 17:32N 50°11' W 003°49'1211.8
2016-Apr-25 16:34N 50°11' W 003°31'1514.6
2016-Apr-25 15:34N 50°15' W 003°09'1515.1
2016-Apr-25 14:34N 50°19' W 002°46'7113.2
2016-Apr-25 09:13N 50°38' W 000°59'710.0
2016-Apr-25 08:33N 50°44' W 001°04'4 4.3
2016-Apr-25 07:31N 50°48' W 001°07'0 0.0
2016-Apr-25 06:31N 50°48' W 001°07'0 0.0
2016-Apr-25 05:31N 50°48' W 001°07'0 0.0
2016-Apr-25 04:31N 50°48' W 001°07'0 0.0
2016-Apr-25 03:31N 50°48' W 001°07'0 0.0
2016-Apr-25 02:31N 50°48' W 001°07'0 0.0
2016-Apr-25 01:31N 50°48' W 001°07'0 0.0
2016-Apr-25 00:31N 50°48' W 001°07'0 0.0
2016-Apr-24 23:31N 50°48' W 001°07'0 0.0
2016-Apr-24 22:31N 50°48' W 001°07'0 0.0
2016-Apr-24 21:31N 50°48' W 001°07'0 0.0
2016-Apr-24 20:34N 50°48' W 001°07'0 0.0
2016-Apr-24 19:33N 50°48' W 001°07'0 0.0
2016-Apr-24 18:33N 50°48' W 001°07'0 0.0
2016-Apr-24 17:33N 50°48' W 001°07'0 0.0
2016-Apr-24 16:33N 50°48' W 001°07'0 0.0
2016-Apr-24 15:33N 50°48' W 001°07'0 0.0
2016-Apr-24 14:33N 50°48' W 001°07'0 0.0
2016-Apr-24 13:33N 50°48' W 001°07'0 0.0
2016-Apr-24 12:33N 50°48' W 001°07'0 0.0
2016-Apr-24 11:33N 50°48' W 001°07'0 0.0
2016-Apr-24 10:33N 50°48' W 001°07'0 0.0
2016-Apr-24 09:33N 50°48' W 001°07'0 0.0
2016-Apr-24 08:33N 50°48' W 001°07'0 0.0
2016-Apr-24 07:33N 50°48' W 001°07'0 0.0
2016-Apr-24 06:33N 50°48' W 001°07'0 0.0
2016-Apr-24 05:33N 50°48' W 001°07'0 0.0
2016-Apr-24 04:33N 50°48' W 001°07'0 0.0
2016-Apr-24 03:33N 50°48' W 001°07'0 0.0
2016-Apr-24 02:33N 50°48' W 001°07'0 0.0
2016-Apr-24 01:33N 50°48' W 001°07'0 0.0
2016-Apr-24 00:33N 50°48' W 001°07'0 0.0
2016-Apr-23 23:33N 50°48' W 001°07'0 0.0
2016-Apr-23 22:33N 50°48' W 001°07'0 0.0
2016-Apr-23 21:33N 50°48' W 001°07'0 0.0
2016-Apr-23 20:33N 50°48' W 001°07'0 0.0
2016-Apr-23 19:33N 50°48' W 001°07'0 0.0
2016-Apr-23 18:33N 50°48' W 001°07'0 0.0
2016-Apr-23 17:33N 50°48' W 001°07'0 0.0
2016-Apr-23 16:33N 50°48' W 001°07'0 0.0
2016-Apr-23 15:33N 50°48' W 001°07'0 0.0
2016-Apr-23 14:33N 50°48' W 001°07'0 0.0
2016-Apr-23 13:32N 50°48' W 001°07'0 0.0
2016-Apr-23 12:32N 50°48' W 001°07'0 0.0
2016-Apr-23 11:32N 50°48' W 001°07'0 0.0
2016-Apr-23 10:32N 50°48' W 001°07'0 0.0
2016-Apr-23 09:32N 50°48' W 001°07'0 0.0
2016-Apr-23 08:32N 50°48' W 001°07'0 0.0
2016-Apr-23 07:32N 50°48' W 001°07'0 0.0
2016-Apr-23 06:32N 50°48' W 001°07'0 0.0
2016-Apr-23 05:32N 50°48' W 001°07'0 0.0
2016-Apr-23 04:32N 50°48' W 001°07'0 0.0
2016-Apr-23 03:32N 50°48' W 001°07'0 0.0
2016-Apr-23 02:32N 50°48' W 001°07'0 0.0
2016-Apr-23 01:32N 50°48' W 001°07'0 0.0
2016-Apr-23 00:32N 50°48' W 001°07'0 0.0
2016-Apr-22 23:32N 50°48' W 001°07'0 0.0
2016-Apr-22 22:29N 50°48' W 001°07'0 0.0
2016-Apr-22 21:32N 50°48' W 001°07'0 0.0
2016-Apr-22 20:32N 50°48' W 001°07'0 0.0
2016-Apr-22 19:32N 50°48' W 001°07'0 0.0
2016-Apr-22 18:32N 50°48' W 001°07'0 0.0
2016-Apr-22 17:32N 50°48' W 001°07'0 0.0
2016-Apr-22 16:32N 50°48' W 001°07'0 0.0
2016-Apr-22 15:32N 50°48' W 001°07'0 0.0
2016-Apr-22 14:32N 50°48' W 001°07'0 0.0
2016-Apr-22 13:32N 50°48' W 001°07'0 0.0
2016-Apr-22 12:32N 50°48' W 001°07'0 0.0
2016-Apr-22 11:32N 50°48' W 001°07'0 0.0
2016-Apr-22 10:32N 50°48' W 001°07'0 0.0
2016-Apr-22 09:32N 50°48' W 001°07'0 0.0
2016-Apr-22 08:32N 50°48' W 001°07'0 0.0
2016-Apr-22 07:34N 50°48' W 001°07'7 7.2
2016-Apr-22 06:33N 50°43' W 000°59'8 7.7
2016-Apr-22 05:32N 50°35' W 001°04'1310.8
2016-Apr-22 04:21N 50°32' W 001°23'3311.9
2016-Apr-22 01:32N 50°25' W 002°14'1311.9
2016-Apr-22 00:29N 50°21' W 002°33'1112.2
2016-Apr-21 23:34N 50°18' W 002°51'1211.8
2016-Apr-21 22:34N 50°15' W 003°08'1211.8
2016-Apr-21 21:34N 50°12' W 003°26'1211.5
2016-Apr-21 20:34N 50°10' W 003°44'1211.9
2016-Apr-21 19:34N 50°08' W 004°02'1312.8
2016-Apr-21 18:33N 50°06' W 004°22'1313.4
2016-Apr-21 17:34N 50°02' W 004°42'1312.9
2016-Apr-21 16:32N 49°58' W 005°02'1413.7
2016-Apr-21 15:29N 49°54' W 005°23'3611.3
2016-Apr-21 12:19N 50°19' W 006°02'1316.5
2016-Apr-21 11:33N 50°32' W 006°03'1817.1
2016-Apr-21 10:31N 50°49' W 006°02'  
Track history (hours):
 
Tides and Currents Weather Stations Pressure Air Temp Water Temp Dewpoint Dewpoint Depression Visibility Wind Speed Wind Dir Waves Ship Positions

Hdms Esbern Snare

Last reported at 2016-May-01 05:33 UTC. Time now 2016-May-01 23:14 UTC.
Position N 57°25' E 010°35'.

Length 137 m.

Type: Military. MMSI: 36699999.

Date/timePositionNaut miles runAvg speedWind from/ knotsBaromVisibWave heightAir tempDewpointWater temp
2016-May-01 05:33N 57°25' E 010°35'8 8.2
2016-May-01 04:33N 57°32' E 010°44'1110.8
2016-May-01 03:33N 57°43' E 010°45'8 7.2
2016-May-01 02:29N 57°47' E 010°32'155 9.2
2016-Apr-30 09:33N 55°41' E 007°46'1111.2
2016-Apr-30 08:33N 55°31' E 007°55'1111.2
2016-Apr-30 07:33N 55°26' E 008°12'1 0.8
2016-Apr-30 06:33N 55°25' E 008°11'8 8.3
2016-Apr-30 05:33N 55°20' E 008°00'1615.6
2016-Apr-30 04:33N 55°10' E 007°39'1615.9
2016-Apr-30 03:33N 54°60' E 007°17'1615.8
2016-Apr-30 02:33N 54°56' E 006°51'24217.3
2016-Apr-29 12:32N 51°47' E 002°37'1918.7
2016-Apr-29 11:30N 51°32' E 002°16'1818.9
2016-Apr-29 10:33N 51°19' E 001°57'1414.1
2016-Apr-29 09:33N 51°08' E 001°43'2220.1
2016-Apr-29 08:29N 50°50' E 001°25'5113.1
2016-Apr-29 04:33N 50°22' E 000°17'1413.7
2016-Apr-29 03:33N 50°18' W 000°04'1814.1
2016-Apr-29 02:14N 50°13' W 000°32'8914.4
2016-Apr-28 20:06N 49°53' W 002°46'814.1
2016-Apr-28 19:31N 49°52' W 002°59'1414.3
2016-Apr-28 18:34N 49°57' W 003°18'1414.1
2016-Apr-28 17:33N 50°04' W 003°38'1312.9
2016-Apr-28 16:33N 50°10' W 003°55'1312.8
2016-Apr-28 15:33N 50°19' W 004°10'4 2.6
2016-Apr-28 14:07N 50°16' W 004°07'8 0.5
2016-Apr-27 21:20N 50°23' W 004°11'0 0.0
2016-Apr-27 20:26N 50°23' W 004°11'0 0.0
2016-Apr-27 19:26N 50°23' W 004°11'0 0.0
2016-Apr-27 18:32N 50°23' W 004°11'0 0.0
2016-Apr-27 16:08N 50°23' W 004°11'0 0.0
2016-Apr-27 15:32N 50°23' W 004°11'0 0.0
2016-Apr-27 03:31N 50°23' W 004°11'0 0.0
2016-Apr-26 20:07N 50°23' W 004°11'0 0.0
2016-Apr-26 13:07N 50°23' W 004°11'0 0.0
2016-Apr-26 12:31N 50°23' W 004°11'0 0.0
2016-Apr-26 10:31N 50°23' W 004°11'0 0.0
2016-Apr-26 08:25N 50°23' W 004°11'0 0.0
2016-Apr-26 02:12N 50°23' W 004°11'0 0.0
2016-Apr-26 01:12N 50°23' W 004°11'0 0.0
2016-Apr-26 00:30N 50°23' W 004°11'0 0.0
2016-Apr-25 21:09N 50°23' W 004°11'0 0.0
2016-Apr-25 20:33N 50°23' W 004°11'1 1.5
2016-Apr-25 19:34N 50°22' W 004°10'7 5.9
2016-Apr-25 18:25N 50°16' W 004°06'1213.5
2016-Apr-25 17:32N 50°11' W 003°49'1211.8
2016-Apr-25 16:34N 50°11' W 003°31'1514.6
2016-Apr-25 15:34N 50°15' W 003°09'1515.1
2016-Apr-25 14:34N 50°19' W 002°46'7113.2
2016-Apr-25 09:13N 50°38' W 000°59'710.0
2016-Apr-25 08:33N 50°44' W 001°04'4 4.3
2016-Apr-25 07:31N 50°48' W 001°07'0 0.0
2016-Apr-25 06:31N 50°48' W 001°07'0 0.0
2016-Apr-25 05:31N 50°48' W 001°07'0 0.0
2016-Apr-25 04:31N 50°48' W 001°07'0 0.0
2016-Apr-25 03:31N 50°48' W 001°07'0 0.0
2016-Apr-25 02:31N 50°48' W 001°07'0 0.0
2016-Apr-25 01:31N 50°48' W 001°07'0 0.0
2016-Apr-25 00:31N 50°48' W 001°07'0 0.0
2016-Apr-24 23:31N 50°48' W 001°07'0 0.0
2016-Apr-24 22:31N 50°48' W 001°07'0 0.0
2016-Apr-24 21:31N 50°48' W 001°07'0 0.0
2016-Apr-24 20:34N 50°48' W 001°07'0 0.0
2016-Apr-24 19:33N 50°48' W 001°07'0 0.0
2016-Apr-24 18:33N 50°48' W 001°07'0 0.0
2016-Apr-24 17:33N 50°48' W 001°07'0 0.0
2016-Apr-24 16:33N 50°48' W 001°07'0 0.0
2016-Apr-24 15:33N 50°48' W 001°07'0 0.0
2016-Apr-24 14:33N 50°48' W 001°07'0 0.0
2016-Apr-24 13:33N 50°48' W 001°07'0 0.0
2016-Apr-24 12:33N 50°48' W 001°07'0 0.0
2016-Apr-24 11:33N 50°48' W 001°07'0 0.0
2016-Apr-24 10:33N 50°48' W 001°07'0 0.0
2016-Apr-24 09:33N 50°48' W 001°07'0 0.0
2016-Apr-24 08:33N 50°48' W 001°07'0 0.0
2016-Apr-24 07:33N 50°48' W 001°07'0 0.0
2016-Apr-24 06:33N 50°48' W 001°07'0 0.0
2016-Apr-24 05:33N 50°48' W 001°07'0 0.0
2016-Apr-24 04:33N 50°48' W 001°07'0 0.0
2016-Apr-24 03:33N 50°48' W 001°07'0 0.0
2016-Apr-24 02:33N 50°48' W 001°07'0 0.0
2016-Apr-24 01:33N 50°48' W 001°07'0 0.0
2016-Apr-24 00:33N 50°48' W 001°07'0 0.0
2016-Apr-23 23:33N 50°48' W 001°07'0 0.0
2016-Apr-23 22:33N 50°48' W 001°07'0 0.0
2016-Apr-23 21:33N 50°48' W 001°07'0 0.0
2016-Apr-23 20:33N 50°48' W 001°07'0 0.0
2016-Apr-23 19:33N 50°48' W 001°07'0 0.0
2016-Apr-23 18:33N 50°48' W 001°07'0 0.0
2016-Apr-23 17:33N 50°48' W 001°07'0 0.0
2016-Apr-23 16:33N 50°48' W 001°07'0 0.0
2016-Apr-23 15:33N 50°48' W 001°07'0 0.0
2016-Apr-23 14:33N 50°48' W 001°07'0 0.0
2016-Apr-23 13:32N 50°48' W 001°07'0 0.0
2016-Apr-23 12:32N 50°48' W 001°07'0 0.0
2016-Apr-23 11:32N 50°48' W 001°07'0 0.0
2016-Apr-23 10:32N 50°48' W 001°07'0 0.0
2016-Apr-23 09:32N 50°48' W 001°07'0 0.0
2016-Apr-23 08:32N 50°48' W 001°07'0 0.0
2016-Apr-23 07:32N 50°48' W 001°07'0 0.0
2016-Apr-23 06:32N 50°48' W 001°07'0 0.0
2016-Apr-23 05:32N 50°48' W 001°07'0 0.0
2016-Apr-23 04:32N 50°48' W 001°07'0 0.0
2016-Apr-23 03:32N 50°48' W 001°07'0 0.0
2016-Apr-23 02:32N 50°48' W 001°07'0 0.0
2016-Apr-23 01:32N 50°48' W 001°07'0 0.0
2016-Apr-23 00:32N 50°48' W 001°07'0 0.0
2016-Apr-22 23:32N 50°48' W 001°07'0 0.0
2016-Apr-22 22:29N 50°48' W 001°07'0 0.0
2016-Apr-22 21:32N 50°48' W 001°07'0 0.0
2016-Apr-22 20:32N 50°48' W 001°07'0 0.0
2016-Apr-22 19:32N 50°48' W 001°07'0 0.0
2016-Apr-22 18:32N 50°48' W 001°07'0 0.0
2016-Apr-22 17:32N 50°48' W 001°07'0 0.0
2016-Apr-22 16:32N 50°48' W 001°07'0 0.0
2016-Apr-22 15:32N 50°48' W 001°07'0 0.0
2016-Apr-22 14:32N 50°48' W 001°07'0 0.0
2016-Apr-22 13:32N 50°48' W 001°07'0 0.0
2016-Apr-22 12:32N 50°48' W 001°07'0 0.0
2016-Apr-22 11:32N 50°48' W 001°07'0 0.0
2016-Apr-22 10:32N 50°48' W 001°07'0 0.0
2016-Apr-22 09:32N 50°48' W 001°07'0 0.0
2016-Apr-22 08:32N 50°48' W 001°07'0 0.0
2016-Apr-22 07:34N 50°48' W 001°07'7 7.2
2016-Apr-22 06:33N 50°43' W 000°59'8 7.7
2016-Apr-22 05:32N 50°35' W 001°04'1310.8
2016-Apr-22 04:21N 50°32' W 001°23'3311.9
2016-Apr-22 01:32N 50°25' W 002°14'1311.9
2016-Apr-22 00:29N 50°21' W 002°33'1112.2
2016-Apr-21 23:34N 50°18' W 002°51'1211.8
2016-Apr-21 22:34N 50°15' W 003°08'1211.8
2016-Apr-21 21:34N 50°12' W 003°26'1211.5
2016-Apr-21 20:34N 50°10' W 003°44'1211.9
2016-Apr-21 19:34N 50°08' W 004°02'1312.8
2016-Apr-21 18:33N 50°06' W 004°22'1313.4
2016-Apr-21 17:34N 50°02' W 004°42'1312.9
2016-Apr-21 16:32N 49°58' W 005°02'1413.7
2016-Apr-21 15:29N 49°54' W 005°23'3611.3
2016-Apr-21 12:19N 50°19' W 006°02'1316.5
2016-Apr-21 11:33N 50°32' W 006°03'1817.1
2016-Apr-21 10:31N 50°49' W 006°02'  

Dump ship's entire track history